sensor_id;sensor_type;location;lat;lon;timestamp;temperature;humidity
29803;DHT22;16702;50.898;4.662;2023-11-21T00:02:25;11.20;99.90
29803;DHT22;16702;50.898;4.662;2023-11-21T00:04:59;11.40;99.90
29803;DHT22;16702;50.898;4.662;2023-11-21T00:07:30;11.40;99.90
29803;DHT22;16702;50.898;4.662;2023-11-21T00:10:01;11.40;99.90
29803;DHT22;16702;50.898;4.662;2023-11-21T00:12:32;11.30;99.90
29803;DHT22;16702;50.898;4.662;2023-11-21T00:15:04;11.30;99.90
29803;DHT22;16702;50.898;4.662;2023-11-21T00:17:37;11.40;99.90
29803;DHT22;16702;50.898;4.662;2023-11-21T00:20:10;11.40;99.90
29803;DHT22;16702;50.898;4.662;2023-11-21T00:22:42;11.40;99.90
29803;DHT22;16702;50.898;4.662;2023-11-21T00:25:13;11.40;99.90
29803;DHT22;16702;50.898;4.662;2023-11-21T00:27:45;11.40;99.90
29803;DHT22;16702;50.898;4.662;2023-11-21T00:30:15;11.40;99.90
29803;DHT22;16702;50.898;4.662;2023-11-21T00:32:47;11.40;99.90
29803;DHT22;16702;50.898;4.662;2023-11-21T00:35:21;11.40;99.90
29803;DHT22;16702;50.898;4.662;2023-11-21T00:37:52;11.40;99.90
29803;DHT22;16702;50.898;4.662;2023-11-21T00:40:23;11.40;99.90
29803;DHT22;16702;50.898;4.662;2023-11-21T00:42:54;11.40;99.90
29803;DHT22;16702;50.898;4.662;2023-11-21T00:45:24;11.40;99.90
29803;DHT22;16702;50.898;4.662;2023-11-21T00:47:55;11.40;99.90
29803;DHT22;16702;50.898;4.662;2023-11-21T00:50:29;11.30;99.90
29803;DHT22;16702;50.898;4.662;2023-11-21T00:53:00;11.30;99.90
29803;DHT22;16702;50.898;4.662;2023-11-21T00:55:30;11.30;99.90
29803;DHT22;16702;50.898;4.662;2023-11-21T00:58:01;11.30;99.90
29803;DHT22;16702;50.898;4.662;2023-11-21T01:00:32;11.30;99.90
29803;DHT22;16702;50.898;4.662;2023-11-21T01:03:03;11.20;99.90
29803;DHT22;16702;50.898;4.662;2023-11-21T01:05:38;11.30;99.90
29803;DHT22;16702;50.898;4.662;2023-11-21T01:08:08;11.20;99.90
29803;DHT22;16702;50.898;4.662;2023-11-21T01:10:39;11.20;99.90
29803;DHT22;16702;50.898;4.662;2023-11-21T01:13:09;11.20;99.90
29803;DHT22;16702;50.898;4.662;2023-11-21T01:15:43;11.30;99.90
29803;DHT22;16702;50.898;4.662;2023-11-21T01:18:13;11.30;99.90
29803;DHT22;16702;50.898;4.662;2023-11-21T01:20:47;11.20;99.90
29803;DHT22;16702;50.898;4.662;2023-11-21T01:23:17;11.20;99.90
29803;DHT22;16702;50.898;4.662;2023-11-21T01:25:49;11.20;99.90
29803;DHT22;16702;50.898;4.662;2023-11-21T01:28:20;11.20;99.90
29803;DHT22;16702;50.898;4.662;2023-11-21T01:30:51;11.30;99.90
29803;DHT22;16702;50.898;4.662;2023-11-21T01:33:24;11.30;99.90
29803;DHT22;16702;50.898;4.662;2023-11-21T01:35:57;11.30;99.90
29803;DHT22;16702;50.898;4.662;2023-11-21T01:38:28;11.20;99.90
29803;DHT22;16702;50.898;4.662;2023-11-21T01:41:00;11.30;99.90
29803;DHT22;16702;50.898;4.662;2023-11-21T01:43:31;11.20;99.90
29803;DHT22;16702;50.898;4.662;2023-11-21T01:46:02;11.30;99.90
29803;DHT22;16702;50.898;4.662;2023-11-21T01:48:34;11.30;99.90
29803;DHT22;16702;50.898;4.662;2023-11-21T01:51:08;11.20;99.90
29803;DHT22;16702;50.898;4.662;2023-11-21T01:53:39;11.20;99.90
29803;DHT22;16702;50.898;4.662;2023-11-21T01:56:10;11.30;99.90
29803;DHT22;16702;50.898;4.662;2023-11-21T01:58:40;11.30;99.90
29803;DHT22;16702;50.898;4.662;2023-11-21T02:01:14;11.30;99.90
29803;DHT22;16702;50.898;4.662;2023-11-21T02:03:46;11.30;99.90
29803;DHT22;16702;50.898;4.662;2023-11-21T02:06:19;11.30;99.90
29803;DHT22;16702;50.898;4.662;2023-11-21T02:08:50;11.30;99.90
29803;DHT22;16702;50.898;4.662;2023-11-21T02:11:20;11.30;99.90
29803;DHT22;16702;50.898;4.662;2023-11-21T02:13:51;11.30;99.90
29803;DHT22;16702;50.898;4.662;2023-11-21T02:16:22;11.30;99.90
29803;DHT22;16702;50.898;4.662;2023-11-21T02:18:53;11.30;99.90
29803;DHT22;16702;50.898;4.662;2023-11-21T02:21:26;11.30;99.90
29803;DHT22;16702;50.898;4.662;2023-11-21T02:24:00;11.30;99.90
29803;DHT22;16702;50.898;4.662;2023-11-21T02:26:30;11.30;99.90
29803;DHT22;16702;50.898;4.662;2023-11-21T02:29:01;11.30;99.90
29803;DHT22;16702;50.898;4.662;2023-11-21T02:31:33;11.30;99.90
29803;DHT22;16702;50.898;4.662;2023-11-21T02:34:06;11.30;99.90
29803;DHT22;16702;50.898;4.662;2023-11-21T02:36:36;11.30;99.90
29803;DHT22;16702;50.898;4.662;2023-11-21T02:39:10;11.30;99.90
29803;DHT22;16702;50.898;4.662;2023-11-21T02:41:41;11.30;99.90
29803;DHT22;16702;50.898;4.662;2023-11-21T02:44:11;11.30;99.90
29803;DHT22;16702;50.898;4.662;2023-11-21T02:46:42;11.30;99.90
29803;DHT22;16702;50.898;4.662;2023-11-21T02:49:12;11.30;99.90
29803;DHT22;16702;50.898;4.662;2023-11-21T02:51:43;11.20;99.90
29803;DHT22;16702;50.898;4.662;2023-11-21T02:54:17;11.30;99.90
29803;DHT22;16702;50.898;4.662;2023-11-21T02:56:49;11.20;99.90
29803;DHT22;16702;50.898;4.662;2023-11-21T02:59:19;11.20;99.90
29803;DHT22;16702;50.898;4.662;2023-11-21T03:01:51;11.20;99.90
29803;DHT22;16702;50.898;4.662;2023-11-21T03:04:21;11.30;99.90
29803;DHT22;16702;50.898;4.662;2023-11-21T03:06:53;11.30;99.90
29803;DHT22;16702;50.898;4.662;2023-11-21T03:09:26;11.30;99.90
29803;DHT22;16702;50.898;4.662;2023-11-21T03:11:56;11.30;99.90
29803;DHT22;16702;50.898;4.662;2023-11-21T03:14:27;11.30;99.90
29803;DHT22;16702;50.898;4.662;2023-11-21T03:16:57;11.30;99.90
29803;DHT22;16702;50.898;4.662;2023-11-21T03:19:28;11.30;99.90
29803;DHT22;16702;50.898;4.662;2023-11-21T03:21:59;11.30;99.90
29803;DHT22;16702;50.898;4.662;2023-11-21T03:24:34;11.30;99.90
29803;DHT22;16702;50.898;4.662;2023-11-21T03:27:05;11.30;99.90
29803;DHT22;16702;50.898;4.662;2023-11-21T03:29:36;11.30;99.90
29803;DHT22;16702;50.898;4.662;2023-11-21T03:32:07;11.30;99.90
29803;DHT22;16702;50.898;4.662;2023-11-21T03:34:53;11.40;99.90
29803;DHT22;16702;50.898;4.662;2023-11-21T03:37:24;11.30;99.90
29803;DHT22;16702;50.898;4.662;2023-11-21T03:39:58;11.40;99.90
29803;DHT22;16702;50.898;4.662;2023-11-21T03:42:31;11.30;99.90
29803;DHT22;16702;50.898;4.662;2023-11-21T03:45:02;11.30;99.90
29803;DHT22;16702;50.898;4.662;2023-11-21T03:47:33;11.30;99.90
29803;DHT22;16702;50.898;4.662;2023-11-21T03:50:05;11.40;99.90
29803;DHT22;16702;50.898;4.662;2023-11-21T03:52:37;11.30;99.90
29803;DHT22;16702;50.898;4.662;2023-11-21T03:55:10;11.40;99.90
29803;DHT22;16702;50.898;4.662;2023-11-21T03:57:42;11.40;99.90
29803;DHT22;16702;50.898;4.662;2023-11-21T04:00:14;11.30;99.90
29803;DHT22;16702;50.898;4.662;2023-11-21T04:02:45;11.40;99.90
29803;DHT22;16702;50.898;4.662;2023-11-21T04:05:19;11.40;99.90
29803;DHT22;16702;50.898;4.662;2023-11-21T04:07:47;11.40;99.90
29803;DHT22;16702;50.898;4.662;2023-11-21T04:10:21;11.40;99.90
29803;DHT22;16702;50.898;4.662;2023-11-21T04:12:51;11.40;99.90
29803;DHT22;16702;50.898;4.662;2023-11-21T04:15:22;11.40;99.90
29803;DHT22;16702;50.898;4.662;2023-11-21T04:17:52;11.40;99.90
29803;DHT22;16702;50.898;4.662;2023-11-21T04:20:24;11.40;99.90
29803;DHT22;16702;50.898;4.662;2023-11-21T04:22:55;11.30;99.90
29803;DHT22;16702;50.898;4.662;2023-11-21T04:25:28;11.40;99.90
29803;DHT22;16702;50.898;4.662;2023-11-21T04:27:59;11.40;99.90
29803;DHT22;16702;50.898;4.662;2023-11-21T04:30:29;11.30;99.90
29803;DHT22;16702;50.898;4.662;2023-11-21T04:33:00;11.40;99.90
29803;DHT22;16702;50.898;4.662;2023-11-21T04:35:34;11.40;99.90
29803;DHT22;16702;50.898;4.662;2023-11-21T04:38:04;11.40;99.90
29803;DHT22;16702;50.898;4.662;2023-11-21T04:40:37;11.40;99.90
29803;DHT22;16702;50.898;4.662;2023-11-21T04:43:08;11.40;99.90
29803;DHT22;16702;50.898;4.662;2023-11-21T04:45:38;11.40;99.90
29803;DHT22;16702;50.898;4.662;2023-11-21T04:48:09;11.40;99.90
29803;DHT22;16702;50.898;4.662;2023-11-21T04:50:40;11.40;99.90
29803;DHT22;16702;50.898;4.662;2023-11-21T04:53:13;11.40;99.90
29803;DHT22;16702;50.898;4.662;2023-11-21T04:55:50;11.40;99.90
29803;DHT22;16702;50.898;4.662;2023-11-21T04:58:21;11.50;99.90
29803;DHT22;16702;50.898;4.662;2023-11-21T05:00:52;11.50;99.90
29803;DHT22;16702;50.898;4.662;2023-11-21T05:03:22;11.50;99.90
29803;DHT22;16702;50.898;4.662;2023-11-21T05:05:53;11.50;99.90
29803;DHT22;16702;50.898;4.662;2023-11-21T05:08:24;11.50;99.90
29803;DHT22;16702;50.898;4.662;2023-11-21T05:10:58;11.50;99.90
29803;DHT22;16702;50.898;4.662;2023-11-21T05:13:28;11.50;99.90
29803;DHT22;16702;50.898;4.662;2023-11-21T05:15:59;11.50;99.90
29803;DHT22;16702;50.898;4.662;2023-11-21T05:18:31;11.50;99.90
29803;DHT22;16702;50.898;4.662;2023-11-21T05:21:02;11.50;99.90
29803;DHT22;16702;50.898;4.662;2023-11-21T05:23:33;11.50;99.90
29803;DHT22;16702;50.898;4.662;2023-11-21T05:26:07;11.50;99.90
29803;DHT22;16702;50.898;4.662;2023-11-21T05:28:38;11.50;99.90
29803;DHT22;16702;50.898;4.662;2023-11-21T05:31:08;11.50;99.90
29803;DHT22;16702;50.898;4.662;2023-11-21T05:33:43;11.50;99.90
29803;DHT22;16702;50.898;4.662;2023-11-21T05:36:13;11.50;99.90
29803;DHT22;16702;50.898;4.662;2023-11-21T05:38:44;11.50;99.90
29803;DHT22;16702;50.898;4.662;2023-11-21T05:41:18;11.50;99.90
29803;DHT22;16702;50.898;4.662;2023-11-21T05:43:48;11.40;99.90
29803;DHT22;16702;50.898;4.662;2023-11-21T05:46:21;11.50;99.90
29803;DHT22;16702;50.898;4.662;2023-11-21T05:48:52;11.50;99.90
29803;DHT22;16702;50.898;4.662;2023-11-21T05:51:22;11.50;99.90
29803;DHT22;16702;50.898;4.662;2023-11-21T05:53:53;11.40;99.90
29803;DHT22;16702;50.898;4.662;2023-11-21T05:56:26;11.50;99.90
29803;DHT22;16702;50.898;4.662;2023-11-21T05:58:57;11.50;99.90
29803;DHT22;16702;50.898;4.662;2023-11-21T06:01:28;11.50;99.90
29803;DHT22;16702;50.898;4.662;2023-11-21T06:03:58;11.50;99.90
29803;DHT22;16702;50.898;4.662;2023-11-21T06:06:29;11.50;99.90
29803;DHT22;16702;50.898;4.662;2023-11-21T06:08:59;11.50;99.90
29803;DHT22;16702;50.898;4.662;2023-11-21T06:11:33;11.50;99.90
29803;DHT22;16702;50.898;4.662;2023-11-21T06:14:04;11.50;99.90
29803;DHT22;16702;50.898;4.662;2023-11-21T06:16:35;11.60;99.90
29803;DHT22;16702;50.898;4.662;2023-11-21T06:19:07;11.60;99.90
29803;DHT22;16702;50.898;4.662;2023-11-21T06:21:38;11.50;99.90
29803;DHT22;16702;50.898;4.662;2023-11-21T06:24:09;11.50;99.90
29803;DHT22;16702;50.898;4.662;2023-11-21T06:26:43;11.50;99.90
29803;DHT22;16702;50.898;4.662;2023-11-21T06:29:16;11.60;99.90
29803;DHT22;16702;50.898;4.662;2023-11-21T06:31:46;11.50;99.90
29803;DHT22;16702;50.898;4.662;2023-11-21T06:34:17;11.50;99.90
29803;DHT22;16702;50.898;4.662;2023-11-21T06:36:49;11.60;99.90
29803;DHT22;16702;50.898;4.662;2023-11-21T06:39:19;11.60;99.90
29803;DHT22;16702;50.898;4.662;2023-11-21T06:41:53;11.60;99.90
29803;DHT22;16702;50.898;4.662;2023-11-21T06:44:23;11.60;99.90
29803;DHT22;16702;50.898;4.662;2023-11-21T06:46:54;11.60;99.90
29803;DHT22;16702;50.898;4.662;2023-11-21T06:49:24;11.60;99.90
29803;DHT22;16702;50.898;4.662;2023-11-21T06:51:55;11.50;99.90
29803;DHT22;16702;50.898;4.662;2023-11-21T06:54:27;11.60;99.90
29803;DHT22;16702;50.898;4.662;2023-11-21T06:57:00;11.60;99.90
29803;DHT22;16702;50.898;4.662;2023-11-21T06:59:30;11.60;99.90
29803;DHT22;16702;50.898;4.662;2023-11-21T07:02:01;11.60;99.90
29803;DHT22;16702;50.898;4.662;2023-11-21T07:04:34;11.60;99.90
29803;DHT22;16702;50.898;4.662;2023-11-21T07:07:06;11.60;99.90
29803;DHT22;16702;50.898;4.662;2023-11-21T07:09:37;11.60;99.90
29803;DHT22;16702;50.898;4.662;2023-11-21T07:12:10;11.60;99.90
29803;DHT22;16702;50.898;4.662;2023-11-21T07:14:41;11.60;99.90
29803;DHT22;16702;50.898;4.662;2023-11-21T07:17:12;11.60;99.90
29803;DHT22;16702;50.898;4.662;2023-11-21T07:19:44;11.60;99.90
29803;DHT22;16702;50.898;4.662;2023-11-21T07:22:16;11.60;99.90
29803;DHT22;16702;50.898;4.662;2023-11-21T07:24:49;11.60;99.90
29803;DHT22;16702;50.898;4.662;2023-11-21T07:27:24;11.50;99.90
29803;DHT22;16702;50.898;4.662;2023-11-21T07:29:57;11.50;99.90
29803;DHT22;16702;50.898;4.662;2023-11-21T07:32:30;11.60;99.90
29803;DHT22;16702;50.898;4.662;2023-11-21T07:35:01;11.50;99.90
29803;DHT22;16702;50.898;4.662;2023-11-21T07:37:32;11.50;99.90
29803;DHT22;16702;50.898;4.662;2023-11-21T07:40:03;11.50;99.90
29803;DHT22;16702;50.898;4.662;2023-11-21T07:42:39;11.50;99.90
29803;DHT22;16702;50.898;4.662;2023-11-21T07:45:11;11.50;99.90
29803;DHT22;16702;50.898;4.662;2023-11-21T07:47:43;11.50;99.90
29803;DHT22;16702;50.898;4.662;2023-11-21T07:50:15;11.70;99.90
29803;DHT22;16702;50.898;4.662;2023-11-21T07:52:48;11.50;99.90
29803;DHT22;16702;50.898;4.662;2023-11-21T07:55:18;11.50;99.90
29803;DHT22;16702;50.898;4.662;2023-11-21T07:57:52;11.50;99.90
29803;DHT22;16702;50.898;4.662;2023-11-21T08:00:22;11.50;99.90
29803;DHT22;16702;50.898;4.662;2023-11-21T08:02:57;11.50;99.90
29803;DHT22;16702;50.898;4.662;2023-11-21T08:05:28;11.50;99.90
29803;DHT22;16702;50.898;4.662;2023-11-21T08:08:04;11.50;99.90
29803;DHT22;16702;50.898;4.662;2023-11-21T08:10:35;11.50;99.90
29803;DHT22;16702;50.898;4.662;2023-11-21T08:13:09;11.50;99.90
29803;DHT22;16702;50.898;4.662;2023-11-21T08:15:43;11.50;99.90
29803;DHT22;16702;50.898;4.662;2023-11-21T08:18:14;11.50;99.90
29803;DHT22;16702;50.898;4.662;2023-11-21T08:20:45;11.50;99.90
29803;DHT22;16702;50.898;4.662;2023-11-21T08:23:17;11.50;99.90
29803;DHT22;16702;50.898;4.662;2023-11-21T08:25:47;11.50;99.90
29803;DHT22;16702;50.898;4.662;2023-11-21T08:28:21;11.50;99.90
29803;DHT22;16702;50.898;4.662;2023-11-21T08:30:53;11.60;99.90
29803;DHT22;16702;50.898;4.662;2023-11-21T08:33:24;11.50;99.90
29803;DHT22;16702;50.898;4.662;2023-11-21T08:35:55;11.50;99.90
29803;DHT22;16702;50.898;4.662;2023-11-21T08:38:25;11.50;99.90
29803;DHT22;16702;50.898;4.662;2023-11-21T08:40:56;11.50;99.90
29803;DHT22;16702;50.898;4.662;2023-11-21T08:43:30;11.50;99.90
29803;DHT22;16702;50.898;4.662;2023-11-21T08:46:01;11.50;99.90
29803;DHT22;16702;50.898;4.662;2023-11-21T08:48:32;11.50;99.90
29803;DHT22;16702;50.898;4.662;2023-11-21T08:51:04;11.50;99.90
29803;DHT22;16702;50.898;4.662;2023-11-21T08:53:34;11.50;99.90
29803;DHT22;16702;50.898;4.662;2023-11-21T08:56:06;11.50;99.90
29803;DHT22;16702;50.898;4.662;2023-11-21T08:58:40;11.50;99.90
29803;DHT22;16702;50.898;4.662;2023-11-21T09:01:10;11.60;99.90
29803;DHT22;16702;50.898;4.662;2023-11-21T09:03:41;11.60;99.90
29803;DHT22;16702;50.898;4.662;2023-11-21T09:06:12;11.60;99.90
29803;DHT22;16702;50.898;4.662;2023-11-21T09:08:42;11.60;99.90
29803;DHT22;16702;50.898;4.662;2023-11-21T09:11:13;11.60;99.90
29803;DHT22;16702;50.898;4.662;2023-11-21T09:13:46;11.50;99.90
29803;DHT22;16702;50.898;4.662;2023-11-21T09:16:17;11.60;99.90
29803;DHT22;16702;50.898;4.662;2023-11-21T09:18:48;11.70;99.90
29803;DHT22;16702;50.898;4.662;2023-11-21T09:21:18;11.60;99.90
29803;DHT22;16702;50.898;4.662;2023-11-21T09:23:49;11.70;99.90
29803;DHT22;16702;50.898;4.662;2023-11-21T09:26:20;11.60;99.90
29803;DHT22;16702;50.898;4.662;2023-11-21T09:28:53;11.70;99.90
29803;DHT22;16702;50.898;4.662;2023-11-21T09:31:24;11.60;99.90
29803;DHT22;16702;50.898;4.662;2023-11-21T09:33:55;11.60;99.90
29803;DHT22;16702;50.898;4.662;2023-11-21T09:36:25;11.60;99.90
29803;DHT22;16702;50.898;4.662;2023-11-21T09:38:58;11.60;99.90
29803;DHT22;16702;50.898;4.662;2023-11-21T09:41:37;11.60;99.90
29803;DHT22;16702;50.898;4.662;2023-11-21T09:44:18;11.60;99.90
29803;DHT22;16702;50.898;4.662;2023-11-21T09:46:52;11.70;99.90
29803;DHT22;16702;50.898;4.662;2023-11-21T09:49:24;11.70;99.90
29803;DHT22;16702;50.898;4.662;2023-11-21T09:51:57;11.70;99.90
29803;DHT22;16702;50.898;4.662;2023-11-21T09:54:31;11.70;99.90
29803;DHT22;16702;50.898;4.662;2023-11-21T09:57:03;11.80;99.90
29803;DHT22;16702;50.898;4.662;2023-11-21T09:59:37;11.80;99.90
29803;DHT22;16702;50.898;4.662;2023-11-21T10:02:08;11.80;99.90
29803;DHT22;16702;50.898;4.662;2023-11-21T10:04:41;11.80;99.90
29803;DHT22;16702;50.898;4.662;2023-11-21T10:07:12;11.70;99.90
29803;DHT22;16702;50.898;4.662;2023-11-21T10:09:44;11.80;99.90
29803;DHT22;16702;50.898;4.662;2023-11-21T10:12:15;11.70;99.90
29803;DHT22;16702;50.898;4.662;2023-11-21T10:14:51;11.60;99.90
29803;DHT22;16702;50.898;4.662;2023-11-21T10:17:24;11.60;99.90
29803;DHT22;16702;50.898;4.662;2023-11-21T10:19:57;11.70;99.90
29803;DHT22;16702;50.898;4.662;2023-11-21T10:22:29;11.50;99.90
29803;DHT22;16702;50.898;4.662;2023-11-21T10:24:59;11.60;99.90
29803;DHT22;16702;50.898;4.662;2023-11-21T10:27:30;11.50;99.90
29803;DHT22;16702;50.898;4.662;2023-11-21T10:30:04;11.60;99.90
29803;DHT22;16702;50.898;4.662;2023-11-21T10:32:35;11.60;99.90
29803;DHT22;16702;50.898;4.662;2023-11-21T10:35:08;11.60;99.90
29803;DHT22;16702;50.898;4.662;2023-11-21T10:37:40;11.70;99.90
29803;DHT22;16702;50.898;4.662;2023-11-21T10:40:11;11.60;99.90
29803;DHT22;16702;50.898;4.662;2023-11-21T10:42:42;11.70;99.90
29803;DHT22;16702;50.898;4.662;2023-11-21T10:45:15;11.70;99.90
29803;DHT22;16702;50.898;4.662;2023-11-21T10:47:46;11.70;99.90
29803;DHT22;16702;50.898;4.662;2023-11-21T10:50:18;11.70;99.90
29803;DHT22;16702;50.898;4.662;2023-11-21T10:52:49;11.70;99.90
29803;DHT22;16702;50.898;4.662;2023-11-21T10:55:20;11.70;99.90
29803;DHT22;16702;50.898;4.662;2023-11-21T10:57:53;11.60;99.90
29803;DHT22;16702;50.898;4.662;2023-11-21T11:00:27;11.70;99.90
29803;DHT22;16702;50.898;4.662;2023-11-21T11:03:00;11.60;99.90
29803;DHT22;16702;50.898;4.662;2023-11-21T11:05:31;11.70;99.90
29803;DHT22;16702;50.898;4.662;2023-11-21T11:08:05;11.70;99.90
29803;DHT22;16702;50.898;4.662;2023-11-21T11:10:36;11.60;99.90
29803;DHT22;16702;50.898;4.662;2023-11-21T11:13:07;11.70;99.90
29803;DHT22;16702;50.898;4.662;2023-11-21T11:15:42;11.70;99.90
29803;DHT22;16702;50.898;4.662;2023-11-21T11:18:13;11.70;99.90
29803;DHT22;16702;50.898;4.662;2023-11-21T11:20:46;11.60;99.90
29803;DHT22;16702;50.898;4.662;2023-11-21T11:23:31;11.70;99.90
29803;DHT22;16702;50.898;4.662;2023-11-21T11:26:12;11.70;99.90
29803;DHT22;16702;50.898;4.662;2023-11-21T11:28:51;11.80;99.90
29803;DHT22;16702;50.898;4.662;2023-11-21T11:31:37;11.80;99.90
29803;DHT22;16702;50.898;4.662;2023-11-21T11:34:19;11.80;99.90
29803;DHT22;16702;50.898;4.662;2023-11-21T11:36:57;11.80;99.90
29803;DHT22;16702;50.898;4.662;2023-11-21T11:39:31;11.80;99.90
29803;DHT22;16702;50.898;4.662;2023-11-21T11:42:07;11.80;99.90
29803;DHT22;16702;50.898;4.662;2023-11-21T11:44:49;11.90;99.90
29803;DHT22;16702;50.898;4.662;2023-11-21T11:47:27;11.90;99.90
29803;DHT22;16702;50.898;4.662;2023-11-21T11:50:04;11.90;99.90
29803;DHT22;16702;50.898;4.662;2023-11-21T11:52:42;11.90;99.90
29803;DHT22;16702;50.898;4.662;2023-11-21T11:55:14;12.00;99.90
29803;DHT22;16702;50.898;4.662;2023-11-21T11:57:48;11.90;99.90
29803;DHT22;16702;50.898;4.662;2023-11-21T12:00:21;11.90;99.90
29803;DHT22;16702;50.898;4.662;2023-11-21T12:02:56;12.00;99.90
29803;DHT22;16702;50.898;4.662;2023-11-21T12:05:32;12.00;99.90
29803;DHT22;16702;50.898;4.662;2023-11-21T12:08:04;12.10;99.90
29803;DHT22;16702;50.898;4.662;2023-11-21T12:10:38;12.20;99.90
29803;DHT22;16702;50.898;4.662;2023-11-21T12:13:11;12.20;99.90
29803;DHT22;16702;50.898;4.662;2023-11-21T12:15:42;12.20;99.90
29803;DHT22;16702;50.898;4.662;2023-11-21T12:18:16;12.20;99.90
29803;DHT22;16702;50.898;4.662;2023-11-21T12:20:46;12.10;99.90
29803;DHT22;16702;50.898;4.662;2023-11-21T12:23:18;12.10;99.90
29803;DHT22;16702;50.898;4.662;2023-11-21T12:25:49;12.10;99.90
29803;DHT22;16702;50.898;4.662;2023-11-21T12:28:19;12.10;99.90
29803;DHT22;16702;50.898;4.662;2023-11-21T12:30:51;12.10;99.90
29803;DHT22;16702;50.898;4.662;2023-11-21T12:33:39;12.10;99.90
29803;DHT22;16702;50.898;4.662;2023-11-21T12:36:11;12.10;99.90
29803;DHT22;16702;50.898;4.662;2023-11-21T12:38:42;12.10;99.90
29803;DHT22;16702;50.898;4.662;2023-11-21T12:41:14;12.10;99.90
29803;DHT22;16702;50.898;4.662;2023-11-21T12:43:45;12.10;99.90
29803;DHT22;16702;50.898;4.662;2023-11-21T12:46:17;12.20;99.90
29803;DHT22;16702;50.898;4.662;2023-11-21T12:48:50;12.20;99.90
29803;DHT22;16702;50.898;4.662;2023-11-21T12:51:21;12.20;99.90
29803;DHT22;16702;50.898;4.662;2023-11-21T12:53:52;12.10;99.90
29803;DHT22;16702;50.898;4.662;2023-11-21T12:56:23;12.20;99.90
29803;DHT22;16702;50.898;4.662;2023-11-21T12:58:54;12.20;99.90
29803;DHT22;16702;50.898;4.662;2023-11-21T13:01:26;12.20;99.90
29803;DHT22;16702;50.898;4.662;2023-11-21T13:04:01;12.20;99.90
29803;DHT22;16702;50.898;4.662;2023-11-21T13:06:32;12.20;99.90
29803;DHT22;16702;50.898;4.662;2023-11-21T13:09:09;12.20;99.90
29803;DHT22;16702;50.898;4.662;2023-11-21T13:11:48;12.30;99.90
29803;DHT22;16702;50.898;4.662;2023-11-21T13:14:29;12.20;99.90
29803;DHT22;16702;50.898;4.662;2023-11-21T13:16:59;12.20;99.90
29803;DHT22;16702;50.898;4.662;2023-11-21T13:19:34;12.20;99.90
29803;DHT22;16702;50.898;4.662;2023-11-21T13:22:04;12.20;99.90
29803;DHT22;16702;50.898;4.662;2023-11-21T13:24:38;12.30;99.90
29803;DHT22;16702;50.898;4.662;2023-11-21T13:27:09;12.20;99.90
29803;DHT22;16702;50.898;4.662;2023-11-21T13:29:41;12.20;99.90
29803;DHT22;16702;50.898;4.662;2023-11-21T13:32:12;12.30;99.90
29803;DHT22;16702;50.898;4.662;2023-11-21T13:34:46;12.30;99.90
29803;DHT22;16702;50.898;4.662;2023-11-21T13:37:20;12.30;99.90
29803;DHT22;16702;50.898;4.662;2023-11-21T13:39:52;12.20;99.90
29803;DHT22;16702;50.898;4.662;2023-11-21T13:42:23;12.30;99.90
29803;DHT22;16702;50.898;4.662;2023-11-21T13:44:56;12.30;99.90
29803;DHT22;16702;50.898;4.662;2023-11-21T13:47:27;12.20;99.90
29803;DHT22;16702;50.898;4.662;2023-11-21T13:50:01;12.30;99.90
29803;DHT22;16702;50.898;4.662;2023-11-21T13:52:34;12.30;99.90
29803;DHT22;16702;50.898;4.662;2023-11-21T13:55:05;12.30;99.90
29803;DHT22;16702;50.898;4.662;2023-11-21T13:57:42;12.30;99.90
29803;DHT22;16702;50.898;4.662;2023-11-21T14:00:17;12.30;99.90
29803;DHT22;16702;50.898;4.662;2023-11-21T14:03:00;12.40;99.90
29803;DHT22;16702;50.898;4.662;2023-11-21T14:05:38;12.30;99.90
29803;DHT22;16702;50.898;4.662;2023-11-21T14:08:10;12.30;99.90
29803;DHT22;16702;50.898;4.662;2023-11-21T14:10:44;12.30;99.90
29803;DHT22;16702;50.898;4.662;2023-11-21T14:13:18;12.30;99.90
29803;DHT22;16702;50.898;4.662;2023-11-21T14:15:51;12.40;99.90
29803;DHT22;16702;50.898;4.662;2023-11-21T14:18:27;12.30;99.90
29803;DHT22;16702;50.898;4.662;2023-11-21T14:21:04;12.30;99.90
29803;DHT22;16702;50.898;4.662;2023-11-21T14:23:36;12.30;99.90
29803;DHT22;16702;50.898;4.662;2023-11-21T14:26:06;12.30;99.90
29803;DHT22;16702;50.898;4.662;2023-11-21T14:28:41;12.30;99.90
29803;DHT22;16702;50.898;4.662;2023-11-21T14:31:12;12.30;99.90
29803;DHT22;16702;50.898;4.662;2023-11-21T14:33:44;12.40;99.90
29803;DHT22;16702;50.898;4.662;2023-11-21T14:36:18;12.40;99.90
29803;DHT22;16702;50.898;4.662;2023-11-21T14:38:48;12.40;99.90
29803;DHT22;16702;50.898;4.662;2023-11-21T14:41:19;12.30;99.90
29803;DHT22;16702;50.898;4.662;2023-11-21T14:43:49;12.30;99.90
29803;DHT22;16702;50.898;4.662;2023-11-21T14:46:21;12.30;99.90
29803;DHT22;16702;50.898;4.662;2023-11-21T14:48:52;12.30;99.90
29803;DHT22;16702;50.898;4.662;2023-11-21T14:51:48;12.30;99.90
29803;DHT22;16702;50.898;4.662;2023-11-21T14:54:28;12.30;99.90
29803;DHT22;16702;50.898;4.662;2023-11-21T14:57:10;12.30;99.90
29803;DHT22;16702;50.898;4.662;2023-11-21T14:59:47;12.40;99.90
29803;DHT22;16702;50.898;4.662;2023-11-21T15:02:19;12.30;99.90
29803;DHT22;16702;50.898;4.662;2023-11-21T15:04:50;12.30;99.90
29803;DHT22;16702;50.898;4.662;2023-11-21T15:07:31;12.30;99.90
29803;DHT22;16702;50.898;4.662;2023-11-21T15:09:59;12.30;99.90
29803;DHT22;16702;50.898;4.662;2023-11-21T15:12:30;12.30;99.90
29803;DHT22;16702;50.898;4.662;2023-11-21T15:15:01;12.30;99.90
29803;DHT22;16702;50.898;4.662;2023-11-21T15:17:34;12.30;99.90
29803;DHT22;16702;50.898;4.662;2023-11-21T15:20:06;12.30;99.90
29803;DHT22;16702;50.898;4.662;2023-11-21T15:22:40;12.30;99.90
29803;DHT22;16702;50.898;4.662;2023-11-21T15:25:11;12.30;99.90
29803;DHT22;16702;50.898;4.662;2023-11-21T15:27:41;12.30;99.90
29803;DHT22;16702;50.898;4.662;2023-11-21T15:30:14;12.30;99.90
29803;DHT22;16702;50.898;4.662;2023-11-21T15:32:49;12.30;99.90
29803;DHT22;16702;50.898;4.662;2023-11-21T15:35:20;12.30;99.90
29803;DHT22;16702;50.898;4.662;2023-11-21T15:37:54;12.30;99.90
29803;DHT22;16702;50.898;4.662;2023-11-21T15:40:26;12.30;99.90
29803;DHT22;16702;50.898;4.662;2023-11-21T15:42:57;12.30;99.90
29803;DHT22;16702;50.898;4.662;2023-11-21T15:45:28;12.30;99.90
29803;DHT22;16702;50.898;4.662;2023-11-21T15:47:59;12.30;99.90
29803;DHT22;16702;50.898;4.662;2023-11-21T15:50:30;12.30;99.90
29803;DHT22;16702;50.898;4.662;2023-11-21T15:53:04;12.30;99.90
29803;DHT22;16702;50.898;4.662;2023-11-21T15:55:35;12.20;99.90
29803;DHT22;16702;50.898;4.662;2023-11-21T15:58:10;12.30;99.90
29803;DHT22;16702;50.898;4.662;2023-11-21T16:00:40;12.30;99.90
29803;DHT22;16702;50.898;4.662;2023-11-21T16:03:11;12.20;99.90